sensor_id;sensor_type;location;lat;lon;timestamp;P1;durP1;ratioP1;P2;durP2;ratioP2
80185;SDS011;69904;52.122;5.422;2023-05-27T00:00:07;6.85;;;2.30;;
80185;SDS011;69904;52.122;5.422;2023-05-27T00:02:35;10.57;;;2.42;;
80185;SDS011;69904;52.122;5.422;2023-05-27T00:07:29;6.43;;;1.80;;
80185;SDS011;69904;52.122;5.422;2023-05-27T00:09:57;7.70;;;2.30;;
80185;SDS011;69904;52.122;5.422;2023-05-27T00:12:23;9.50;;;1.88;;
80185;SDS011;69904;52.122;5.422;2023-05-27T00:14:50;6.72;;;2.17;;
80185;SDS011;69904;52.122;5.422;2023-05-27T00:17:16;9.23;;;2.22;;
80185;SDS011;69904;52.122;5.422;2023-05-27T00:19:43;6.60;;;2.08;;
80185;SDS011;69904;52.122;5.422;2023-05-27T00:22:11;11.88;;;2.10;;
80185;SDS011;69904;52.122;5.422;2023-05-27T00:24:37;5.93;;;1.83;;
80185;SDS011;69904;52.122;5.422;2023-05-27T00:27:06;6.00;;;1.90;;
80185;SDS011;69904;52.122;5.422;2023-05-27T00:29:32;5.43;;;1.90;;
80185;SDS011;69904;52.122;5.422;2023-05-27T00:34:29;9.75;;;2.00;;
80185;SDS011;69904;52.122;5.422;2023-05-27T00:36:56;5.88;;;1.63;;
80185;SDS011;69904;52.122;5.422;2023-05-27T00:41:50;7.82;;;1.75;;
80185;SDS011;69904;52.122;5.422;2023-05-27T00:44:17;9.82;;;2.33;;
80185;SDS011;69904;52.122;5.422;2023-05-27T00:46:44;7.70;;;1.75;;
80185;SDS011;69904;52.122;5.422;2023-05-27T00:49:13;6.90;;;2.15;;
80185;SDS011;69904;52.122;5.422;2023-05-27T00:51:40;5.70;;;1.70;;
80185;SDS011;69904;52.122;5.422;2023-05-27T00:54:07;9.93;;;2.10;;
80185;SDS011;69904;52.122;5.422;2023-05-27T00:59:02;6.82;;;1.98;;
80185;SDS011;69904;52.122;5.422;2023-05-27T01:01:29;5.25;;;1.83;;
80185;SDS011;69904;52.122;5.422;2023-05-27T01:03:55;5.32;;;1.45;;
80185;SDS011;69904;52.122;5.422;2023-05-27T01:11:51;10.45;;;2.33;;
80185;SDS011;69904;52.122;5.422;2023-05-27T01:14:30;9.60;;;1.88;;
80185;SDS011;69904;52.122;5.422;2023-05-27T01:16:58;8.68;;;2.13;;
80185;SDS011;69904;52.122;5.422;2023-05-27T01:19:30;5.95;;;1.88;;
80185;SDS011;69904;52.122;5.422;2023-05-27T01:22:00;7.97;;;2.35;;
80185;SDS011;69904;52.122;5.422;2023-05-27T01:24:27;7.00;;;1.60;;
80185;SDS011;69904;52.122;5.422;2023-05-27T01:26:54;10.75;;;2.25;;
80185;SDS011;69904;52.122;5.422;2023-05-27T01:29:27;9.25;;;1.70;;
80185;SDS011;69904;52.122;5.422;2023-05-27T01:32:01;9.52;;;2.08;;
80185;SDS011;69904;52.122;5.422;2023-05-27T01:34:37;5.53;;;1.75;;
80185;SDS011;69904;52.122;5.422;2023-05-27T01:37:09;11.23;;;1.88;;
80185;SDS011;69904;52.122;5.422;2023-05-27T01:39:42;6.47;;;1.90;;
80185;SDS011;69904;52.122;5.422;2023-05-27T01:44:36;10.77;;;2.05;;
80185;SDS011;69904;52.122;5.422;2023-05-27T01:47:03;12.63;;;2.30;;
80185;SDS011;69904;52.122;5.422;2023-05-27T01:49:30;6.95;;;1.95;;
80185;SDS011;69904;52.122;5.422;2023-05-27T01:51:56;10.73;;;2.05;;
80185;SDS011;69904;52.122;5.422;2023-05-27T01:54:23;8.35;;;2.17;;
80185;SDS011;69904;52.122;5.422;2023-05-27T01:56:49;7.85;;;1.77;;
80185;SDS011;69904;52.122;5.422;2023-05-27T01:59:16;5.35;;;2.08;;
80185;SDS011;69904;52.122;5.422;2023-05-27T02:01:42;7.75;;;1.98;;
80185;SDS011;69904;52.122;5.422;2023-05-27T02:04:09;6.80;;;1.92;;
80185;SDS011;69904;52.122;5.422;2023-05-27T02:06:36;5.75;;;2.75;;
80185;SDS011;69904;52.122;5.422;2023-05-27T02:09:03;6.00;;;1.60;;
80185;SDS011;69904;52.122;5.422;2023-05-27T02:16:22;6.47;;;1.80;;
80185;SDS011;69904;52.122;5.422;2023-05-27T02:18:49;9.55;;;1.92;;
80185;SDS011;69904;52.122;5.422;2023-05-27T02:21:16;4.65;;;1.67;;
80185;SDS011;69904;52.122;5.422;2023-05-27T02:23:42;8.65;;;1.75;;
80185;SDS011;69904;52.122;5.422;2023-05-27T02:26:09;5.80;;;1.88;;
80185;SDS011;69904;52.122;5.422;2023-05-27T02:28:35;5.20;;;1.42;;
80185;SDS011;69904;52.122;5.422;2023-05-27T02:31:02;6.93;;;1.60;;
80185;SDS011;69904;52.122;5.422;2023-05-27T02:33:28;8.68;;;2.08;;
80185;SDS011;69904;52.122;5.422;2023-05-27T02:35:56;8.05;;;2.00;;
80185;SDS011;69904;52.122;5.422;2023-05-27T02:38:23;8.73;;;2.08;;
80185;SDS011;69904;52.122;5.422;2023-05-27T02:40:49;13.35;;;2.00;;
80185;SDS011;69904;52.122;5.422;2023-05-27T02:43:16;9.52;;;2.67;;
80185;SDS011;69904;52.122;5.422;2023-05-27T02:45:42;7.40;;;2.50;;
80185;SDS011;69904;52.122;5.422;2023-05-27T02:48:09;9.98;;;2.45;;
80185;SDS011;69904;52.122;5.422;2023-05-27T02:50:35;9.65;;;2.03;;
80185;SDS011;69904;52.122;5.422;2023-05-27T02:53:02;4.78;;;1.75;;
80185;SDS011;69904;52.122;5.422;2023-05-27T02:55:29;9.13;;;1.92;;
80185;SDS011;69904;52.122;5.422;2023-05-27T02:57:55;5.38;;;1.90;;
80185;SDS011;69904;52.122;5.422;2023-05-27T03:00:22;7.40;;;1.77;;
80185;SDS011;69904;52.122;5.422;2023-05-27T03:02:48;8.73;;;2.47;;
80185;SDS011;69904;52.122;5.422;2023-05-27T03:05:15;6.90;;;1.88;;
80185;SDS011;69904;52.122;5.422;2023-05-27T03:07:41;6.00;;;2.00;;
80185;SDS011;69904;52.122;5.422;2023-05-27T03:10:08;6.70;;;1.95;;
80185;SDS011;69904;52.122;5.422;2023-05-27T03:12:35;9.75;;;1.95;;
80185;SDS011;69904;52.122;5.422;2023-05-27T03:15:01;8.85;;;2.00;;
80185;SDS011;69904;52.122;5.422;2023-05-27T03:17:28;9.27;;;2.40;;
80185;SDS011;69904;52.122;5.422;2023-05-27T03:19:54;7.15;;;1.70;;
80185;SDS011;69904;52.122;5.422;2023-05-27T03:22:21;10.02;;;2.13;;
80185;SDS011;69904;52.122;5.422;2023-05-27T03:24:47;7.93;;;2.25;;
80185;SDS011;69904;52.122;5.422;2023-05-27T03:27:14;7.97;;;2.00;;
80185;SDS011;69904;52.122;5.422;2023-05-27T03:29:40;7.50;;;2.05;;
80185;SDS011;69904;52.122;5.422;2023-05-27T03:32:07;10.70;;;2.33;;
80185;SDS011;69904;52.122;5.422;2023-05-27T03:34:34;7.15;;;2.03;;
80185;SDS011;69904;52.122;5.422;2023-05-27T03:37:01;8.93;;;1.98;;
80185;SDS011;69904;52.122;5.422;2023-05-27T03:39:27;10.50;;;2.13;;
80185;SDS011;69904;52.122;5.422;2023-05-27T03:41:54;13.98;;;2.35;;
80185;SDS011;69904;52.122;5.422;2023-05-27T03:44:20;7.65;;;2.50;;
80185;SDS011;69904;52.122;5.422;2023-05-27T03:46:47;10.35;;;2.20;;
80185;SDS011;69904;52.122;5.422;2023-05-27T03:49:13;8.90;;;2.10;;
80185;SDS011;69904;52.122;5.422;2023-05-27T03:51:40;7.88;;;1.73;;
80185;SDS011;69904;52.122;5.422;2023-05-27T03:54:06;9.35;;;1.98;;
80185;SDS011;69904;52.122;5.422;2023-05-27T03:56:33;5.80;;;1.63;;
80185;SDS011;69904;52.122;5.422;2023-05-27T03:59:00;7.22;;;1.60;;
80185;SDS011;69904;52.122;5.422;2023-05-27T04:03:53;6.63;;;1.50;;
80185;SDS011;69904;52.122;5.422;2023-05-27T04:06:20;6.03;;;2.05;;
80185;SDS011;69904;52.122;5.422;2023-05-27T04:08:47;7.82;;;2.10;;
80185;SDS011;69904;52.122;5.422;2023-05-27T04:11:13;5.75;;;2.08;;
80185;SDS011;69904;52.122;5.422;2023-05-27T04:13:40;7.68;;;1.83;;
80185;SDS011;69904;52.122;5.422;2023-05-27T04:16:07;5.50;;;1.80;;
80185;SDS011;69904;52.122;5.422;2023-05-27T04:18:34;8.10;;;2.22;;
80185;SDS011;69904;52.122;5.422;2023-05-27T04:21:01;7.47;;;2.00;;
80185;SDS011;69904;52.122;5.422;2023-05-27T04:23:28;6.32;;;2.00;;
80185;SDS011;69904;52.122;5.422;2023-05-27T04:25:54;11.77;;;2.58;;
80185;SDS011;69904;52.122;5.422;2023-05-27T04:28:21;7.93;;;2.03;;
80185;SDS011;69904;52.122;5.422;2023-05-27T04:30:47;7.40;;;2.10;;
80185;SDS011;69904;52.122;5.422;2023-05-27T04:33:14;8.93;;;2.60;;
80185;SDS011;69904;52.122;5.422;2023-05-27T04:35:42;9.15;;;2.15;;
80185;SDS011;69904;52.122;5.422;2023-05-27T04:38:10;8.32;;;2.25;;
80185;SDS011;69904;52.122;5.422;2023-05-27T04:40:42;7.68;;;1.95;;
80185;SDS011;69904;52.122;5.422;2023-05-27T04:43:11;10.63;;;2.40;;
80185;SDS011;69904;52.122;5.422;2023-05-27T04:45:41;11.13;;;2.28;;
80185;SDS011;69904;52.122;5.422;2023-05-27T04:48:09;12.55;;;2.20;;
80185;SDS011;69904;52.122;5.422;2023-05-27T04:50:36;9.68;;;1.95;;
80185;SDS011;69904;52.122;5.422;2023-05-27T04:53:03;8.38;;;2.10;;
80185;SDS011;69904;52.122;5.422;2023-05-27T04:55:32;10.57;;;2.45;;
80185;SDS011;69904;52.122;5.422;2023-05-27T04:57:59;9.52;;;2.30;;
80185;SDS011;69904;52.122;5.422;2023-05-27T05:00:30;13.57;;;2.15;;
80185;SDS011;69904;52.122;5.422;2023-05-27T05:03:17;8.35;;;2.10;;
80185;SDS011;69904;52.122;5.422;2023-05-27T05:05:51;7.53;;;2.00;;
80185;SDS011;69904;52.122;5.422;2023-05-27T05:08:19;10.27;;;2.17;;
80185;SDS011;69904;52.122;5.422;2023-05-27T05:10:46;8.43;;;2.03;;
80185;SDS011;69904;52.122;5.422;2023-05-27T05:13:13;8.75;;;1.92;;
80185;SDS011;69904;52.122;5.422;2023-05-27T05:15:42;5.07;;;1.95;;
80185;SDS011;69904;52.122;5.422;2023-05-27T05:18:11;8.23;;;2.08;;
80185;SDS011;69904;52.122;5.422;2023-05-27T05:20:39;9.75;;;2.25;;
80185;SDS011;69904;52.122;5.422;2023-05-27T05:23:07;11.73;;;3.38;;
80185;SDS011;69904;52.122;5.422;2023-05-27T05:25:34;7.97;;;2.28;;
80185;SDS011;69904;52.122;5.422;2023-05-27T05:28:04;7.50;;;1.92;;
80185;SDS011;69904;52.122;5.422;2023-05-27T05:30:31;8.38;;;2.45;;
80185;SDS011;69904;52.122;5.422;2023-05-27T05:32:58;11.45;;;2.38;;
80185;SDS011;69904;52.122;5.422;2023-05-27T05:35:25;7.93;;;2.20;;
80185;SDS011;69904;52.122;5.422;2023-05-27T05:37:52;7.97;;;2.25;;
80185;SDS011;69904;52.122;5.422;2023-05-27T05:40:18;6.82;;;2.50;;
80185;SDS011;69904;52.122;5.422;2023-05-27T05:42:45;7.57;;;2.17;;
80185;SDS011;69904;52.122;5.422;2023-05-27T05:45:12;8.90;;;2.22;;
80185;SDS011;69904;52.122;5.422;2023-05-27T05:47:38;8.32;;;2.33;;
80185;SDS011;69904;52.122;5.422;2023-05-27T05:50:05;6.82;;;2.00;;
80185;SDS011;69904;52.122;5.422;2023-05-27T05:52:32;14.48;;;2.30;;
80185;SDS011;69904;52.122;5.422;2023-05-27T05:54:58;12.50;;;2.30;;
80185;SDS011;69904;52.122;5.422;2023-05-27T05:57:25;8.07;;;2.58;;
80185;SDS011;69904;52.122;5.422;2023-05-27T05:59:51;11.40;;;2.70;;
80185;SDS011;69904;52.122;5.422;2023-05-27T06:02:18;9.40;;;2.08;;
80185;SDS011;69904;52.122;5.422;2023-05-27T06:04:44;7.78;;;1.73;;
80185;SDS011;69904;52.122;5.422;2023-05-27T06:07:11;12.25;;;3.03;;
80185;SDS011;69904;52.122;5.422;2023-05-27T06:09:37;7.63;;;1.90;;
80185;SDS011;69904;52.122;5.422;2023-05-27T06:12:04;6.80;;;2.05;;
80185;SDS011;69904;52.122;5.422;2023-05-27T06:14:30;10.70;;;2.28;;
80185;SDS011;69904;52.122;5.422;2023-05-27T06:16:57;8.18;;;2.28;;
80185;SDS011;69904;52.122;5.422;2023-05-27T06:19:23;7.53;;;2.42;;
80185;SDS011;69904;52.122;5.422;2023-05-27T06:21:50;8.73;;;2.20;;
80185;SDS011;69904;52.122;5.422;2023-05-27T06:26:45;7.68;;;2.50;;
80185;SDS011;69904;52.122;5.422;2023-05-27T06:29:11;8.40;;;2.42;;
80185;SDS011;69904;52.122;5.422;2023-05-27T06:31:38;9.43;;;2.50;;
80185;SDS011;69904;52.122;5.422;2023-05-27T06:34:04;8.80;;;2.63;;
80185;SDS011;69904;52.122;5.422;2023-05-27T06:36:31;12.32;;;2.47;;
80185;SDS011;69904;52.122;5.422;2023-05-27T06:38:57;11.63;;;2.80;;
80185;SDS011;69904;52.122;5.422;2023-05-27T06:41:24;7.30;;;2.20;;
80185;SDS011;69904;52.122;5.422;2023-05-27T06:46:18;5.57;;;2.00;;
80185;SDS011;69904;52.122;5.422;2023-05-27T06:48:44;13.80;;;2.63;;
80185;SDS011;69904;52.122;5.422;2023-05-27T06:51:11;7.97;;;2.40;;
80185;SDS011;69904;52.122;5.422;2023-05-27T06:53:37;11.57;;;1.95;;
80185;SDS011;69904;52.122;5.422;2023-05-27T06:56:04;7.25;;;2.53;;
80185;SDS011;69904;52.122;5.422;2023-05-27T06:58:30;8.52;;;2.03;;
80185;SDS011;69904;52.122;5.422;2023-05-27T07:00:59;7.95;;;2.75;;
80185;SDS011;69904;52.122;5.422;2023-05-27T07:03:26;10.63;;;2.53;;
80185;SDS011;69904;52.122;5.422;2023-05-27T07:05:52;7.03;;;2.03;;
80185;SDS011;69904;52.122;5.422;2023-05-27T07:08:19;9.13;;;2.70;;
80185;SDS011;69904;52.122;5.422;2023-05-27T07:10:45;9.23;;;2.53;;
80185;SDS011;69904;52.122;5.422;2023-05-27T07:13:12;11.52;;;2.45;;
80185;SDS011;69904;52.122;5.422;2023-05-27T07:15:40;7.43;;;2.25;;
80185;SDS011;69904;52.122;5.422;2023-05-27T07:18:06;9.07;;;2.35;;
80185;SDS011;69904;52.122;5.422;2023-05-27T07:20:33;5.40;;;2.20;;
80185;SDS011;69904;52.122;5.422;2023-05-27T07:23:01;8.05;;;2.28;;
80185;SDS011;69904;52.122;5.422;2023-05-27T07:25:27;7.80;;;2.67;;
80185;SDS011;69904;52.122;5.422;2023-05-27T07:27:54;9.27;;;2.17;;
80185;SDS011;69904;52.122;5.422;2023-05-27T07:30:20;6.38;;;3.00;;
80185;SDS011;69904;52.122;5.422;2023-05-27T07:32:47;12.32;;;2.85;;
80185;SDS011;69904;52.122;5.422;2023-05-27T07:35:14;12.02;;;2.65;;
80185;SDS011;69904;52.122;5.422;2023-05-27T07:37:41;8.50;;;2.80;;
80185;SDS011;69904;52.122;5.422;2023-05-27T07:40:08;9.52;;;2.33;;
80185;SDS011;69904;52.122;5.422;2023-05-27T07:42:34;10.73;;;3.05;;
80185;SDS011;69904;52.122;5.422;2023-05-27T07:45:03;7.63;;;2.70;;
80185;SDS011;69904;52.122;5.422;2023-05-27T07:47:29;11.95;;;2.65;;
80185;SDS011;69904;52.122;5.422;2023-05-27T07:49:56;11.73;;;2.60;;
80185;SDS011;69904;52.122;5.422;2023-05-27T07:52:22;12.68;;;2.63;;
80185;SDS011;69904;52.122;5.422;2023-05-27T07:54:49;9.68;;;2.60;;
80185;SDS011;69904;52.122;5.422;2023-05-27T07:57:21;6.63;;;2.17;;
80185;SDS011;69904;52.122;5.422;2023-05-27T07:59:47;11.48;;;2.75;;
80185;SDS011;69904;52.122;5.422;2023-05-27T08:02:14;8.32;;;2.50;;
80185;SDS011;69904;52.122;5.422;2023-05-27T08:04:40;9.90;;;2.70;;
80185;SDS011;69904;52.122;5.422;2023-05-27T08:07:09;6.07;;;2.58;;
80185;SDS011;69904;52.122;5.422;2023-05-27T08:09:36;8.23;;;2.33;;
80185;SDS011;69904;52.122;5.422;2023-05-27T08:12:02;8.38;;;2.45;;
80185;SDS011;69904;52.122;5.422;2023-05-27T08:14:29;8.25;;;2.67;;
80185;SDS011;69904;52.122;5.422;2023-05-27T08:16:56;12.40;;;2.75;;
80185;SDS011;69904;52.122;5.422;2023-05-27T08:19:22;8.98;;;2.67;;
80185;SDS011;69904;52.122;5.422;2023-05-27T08:21:49;10.25;;;2.60;;
80185;SDS011;69904;52.122;5.422;2023-05-27T08:24:15;9.32;;;2.70;;
80185;SDS011;69904;52.122;5.422;2023-05-27T08:26:42;7.68;;;3.13;;
80185;SDS011;69904;52.122;5.422;2023-05-27T08:29:08;8.00;;;2.33;;
80185;SDS011;69904;52.122;5.422;2023-05-27T08:31:36;11.07;;;2.88;;
80185;SDS011;69904;52.122;5.422;2023-05-27T08:34:03;9.05;;;2.67;;
80185;SDS011;69904;52.122;5.422;2023-05-27T08:36:29;11.00;;;3.00;;
80185;SDS011;69904;52.122;5.422;2023-05-27T08:38:57;9.13;;;2.80;;
80185;SDS011;69904;52.122;5.422;2023-05-27T08:41:24;10.68;;;3.03;;
80185;SDS011;69904;52.122;5.422;2023-05-27T08:43:53;8.23;;;2.80;;
80185;SDS011;69904;52.122;5.422;2023-05-27T08:46:31;7.80;;;3.08;;
80185;SDS011;69904;52.122;5.422;2023-05-27T08:48:58;8.43;;;2.53;;
80185;SDS011;69904;52.122;5.422;2023-05-27T08:51:25;8.25;;;2.40;;
80185;SDS011;69904;52.122;5.422;2023-05-27T08:53:52;8.65;;;2.70;;
80185;SDS011;69904;52.122;5.422;2023-05-27T08:56:19;12.10;;;3.00;;
80185;SDS011;69904;52.122;5.422;2023-05-27T08:58:49;10.20;;;3.10;;
80185;SDS011;69904;52.122;5.422;2023-05-27T09:01:19;8.60;;;3.17;;
80185;SDS011;69904;52.122;5.422;2023-05-27T09:03:48;9.70;;;2.72;;
80185;SDS011;69904;52.122;5.422;2023-05-27T09:06:14;10.70;;;2.80;;
80185;SDS011;69904;52.122;5.422;2023-05-27T09:08:41;9.00;;;2.95;;
80185;SDS011;69904;52.122;5.422;2023-05-27T09:11:23;11.20;;;3.30;;
80185;SDS011;69904;52.122;5.422;2023-05-27T09:13:55;9.43;;;2.72;;
80185;SDS011;69904;52.122;5.422;2023-05-27T09:16:22;8.35;;;2.97;;
80185;SDS011;69904;52.122;5.422;2023-05-27T09:18:49;11.10;;;3.03;;
80185;SDS011;69904;52.122;5.422;2023-05-27T09:21:16;9.77;;;3.03;;
80185;SDS011;69904;52.122;5.422;2023-05-27T09:26:10;9.10;;;3.40;;
80185;SDS011;69904;52.122;5.422;2023-05-27T09:28:37;11.25;;;3.17;;
80185;SDS011;69904;52.122;5.422;2023-05-27T09:31:05;10.00;;;2.65;;
80185;SDS011;69904;52.122;5.422;2023-05-27T09:33:34;9.18;;;3.33;;
80185;SDS011;69904;52.122;5.422;2023-05-27T09:36:02;11.40;;;3.13;;
80185;SDS011;69904;52.122;5.422;2023-05-27T09:38:30;10.65;;;3.10;;
80185;SDS011;69904;52.122;5.422;2023-05-27T09:40:57;11.55;;;3.15;;
80185;SDS011;69904;52.122;5.422;2023-05-27T09:43:25;10.38;;;3.15;;
80185;SDS011;69904;52.122;5.422;2023-05-27T09:46:02;10.55;;;2.83;;
80185;SDS011;69904;52.122;5.422;2023-05-27T09:48:30;12.13;;;3.47;;
80185;SDS011;69904;52.122;5.422;2023-05-27T09:50:58;8.25;;;2.78;;
80185;SDS011;69904;52.122;5.422;2023-05-27T09:53:26;11.27;;;3.50;;
80185;SDS011;69904;52.122;5.422;2023-05-27T09:55:54;12.70;;;3.20;;
80185;SDS011;69904;52.122;5.422;2023-05-27T09:58:22;12.45;;;3.17;;
80185;SDS011;69904;52.122;5.422;2023-05-27T10:00:50;12.70;;;4.13;;
80185;SDS011;69904;52.122;5.422;2023-05-27T10:03:19;10.73;;;3.42;;
80185;SDS011;69904;52.122;5.422;2023-05-27T10:05:48;10.23;;;2.95;;
80185;SDS011;69904;52.122;5.422;2023-05-27T10:08:16;14.13;;;3.25;;
80185;SDS011;69904;52.122;5.422;2023-05-27T10:10:51;10.80;;;3.42;;
80185;SDS011;69904;52.122;5.422;2023-05-27T10:13:19;11.98;;;3.42;;
80185;SDS011;69904;52.122;5.422;2023-05-27T10:15:47;15.85;;;2.97;;
80185;SDS011;69904;52.122;5.422;2023-05-27T10:18:22;9.75;;;3.15;;
80185;SDS011;69904;52.122;5.422;2023-05-27T10:20:50;8.10;;;3.33;;
80185;SDS011;69904;52.122;5.422;2023-05-27T10:23:21;6.97;;;3.00;;
80185;SDS011;69904;52.122;5.422;2023-05-27T10:26:01;11.07;;;2.72;;
80185;SDS011;69904;52.122;5.422;2023-05-27T10:28:33;12.95;;;3.50;;
80185;SDS011;69904;52.122;5.422;2023-05-27T10:31:06;12.48;;;3.10;;
80185;SDS011;69904;52.122;5.422;2023-05-27T10:33:34;9.68;;;2.92;;
80185;SDS011;69904;52.122;5.422;2023-05-27T10:36:12;7.43;;;2.60;;
80185;SDS011;69904;52.122;5.422;2023-05-27T10:38:43;7.70;;;2.75;;
80185;SDS011;69904;52.122;5.422;2023-05-27T10:41:20;10.13;;;3.65;;
80185;SDS011;69904;52.122;5.422;2023-05-27T10:43:55;10.38;;;2.80;;
80185;SDS011;69904;52.122;5.422;2023-05-27T10:46:25;10.55;;;3.58;;
80185;SDS011;69904;52.122;5.422;2023-05-27T10:48:53;10.52;;;2.83;;
80185;SDS011;69904;52.122;5.422;2023-05-27T10:53:46;8.60;;;3.20;;
80185;SDS011;69904;52.122;5.422;2023-05-27T10:56:23;9.40;;;2.90;;
80185;SDS011;69904;52.122;5.422;2023-05-27T10:58:52;12.95;;;3.22;;
80185;SDS011;69904;52.122;5.422;2023-05-27T11:01:22;8.40;;;3.13;;
80185;SDS011;69904;52.122;5.422;2023-05-27T11:03:54;8.55;;;2.67;;
80185;SDS011;69904;52.122;5.422;2023-05-27T11:08:48;9.35;;;3.03;;
80185;SDS011;69904;52.122;5.422;2023-05-27T11:11:15;9.13;;;3.03;;
80185;SDS011;69904;52.122;5.422;2023-05-27T11:13:42;7.93;;;2.70;;
80185;SDS011;69904;52.122;5.422;2023-05-27T11:16:13;8.60;;;3.38;;
80185;SDS011;69904;52.122;5.422;2023-05-27T11:18:41;6.15;;;2.33;;
80185;SDS011;69904;52.122;5.422;2023-05-27T11:21:09;9.82;;;2.80;;
80185;SDS011;69904;52.122;5.422;2023-05-27T11:23:41;8.68;;;2.55;;
80185;SDS011;69904;52.122;5.422;2023-05-27T11:31:17;12.38;;;3.05;;
80185;SDS011;69904;52.122;5.422;2023-05-27T11:33:46;7.65;;;2.80;;
80185;SDS011;69904;52.122;5.422;2023-05-27T11:36:16;9.35;;;2.80;;
80185;SDS011;69904;52.122;5.422;2023-05-27T11:38:49;11.63;;;3.00;;
80185;SDS011;69904;52.122;5.422;2023-05-27T11:41:27;8.07;;;2.90;;
80185;SDS011;69904;52.122;5.422;2023-05-27T11:43:56;10.07;;;3.17;;
80185;SDS011;69904;52.122;5.422;2023-05-27T11:46:33;7.43;;;2.80;;
80185;SDS011;69904;52.122;5.422;2023-05-27T11:49:03;8.88;;;3.05;;
80185;SDS011;69904;52.122;5.422;2023-05-27T11:51:32;8.60;;;2.53;;
80185;SDS011;69904;52.122;5.422;2023-05-27T11:54:01;7.75;;;2.78;;
80185;SDS011;69904;52.122;5.422;2023-05-27T11:58:55;9.93;;;2.80;;
80185;SDS011;69904;52.122;5.422;2023-05-27T12:01:22;10.05;;;2.83;;
80185;SDS011;69904;52.122;5.422;2023-05-27T12:03:48;9.13;;;2.72;;
80185;SDS011;69904;52.122;5.422;2023-05-27T12:06:15;9.00;;;2.45;;
80185;SDS011;69904;52.122;5.422;2023-05-27T12:08:42;6.05;;;2.65;;
80185;SDS011;69904;52.122;5.422;2023-05-27T12:11:09;9.15;;;2.55;;
80185;SDS011;69904;52.122;5.422;2023-05-27T12:13:35;8.75;;;2.70;;
80185;SDS011;69904;52.122;5.422;2023-05-27T12:18:29;9.88;;;2.85;;
80185;SDS011;69904;52.122;5.422;2023-05-27T12:20:56;8.13;;;2.72;;
80185;SDS011;69904;52.122;5.422;2023-05-27T12:23:22;7.28;;;2.67;;
80185;SDS011;69904;52.122;5.422;2023-05-27T12:25:49;8.10;;;2.55;;
80185;SDS011;69904;52.122;5.422;2023-05-27T12:28:16;8.10;;;2.80;;
80185;SDS011;69904;52.122;5.422;2023-05-27T12:33:19;9.15;;;2.40;;
80185;SDS011;69904;52.122;5.422;2023-05-27T12:35:51;6.82;;;2.70;;
80185;SDS011;69904;52.122;5.422;2023-05-27T12:38:22;7.72;;;2.60;;
80185;SDS011;69904;52.122;5.422;2023-05-27T12:40:52;10.40;;;3.13;;
80185;SDS011;69904;52.122;5.422;2023-05-27T12:43:32;9.38;;;2.60;;
80185;SDS011;69904;52.122;5.422;2023-05-27T12:45:59;7.82;;;2.80;;
80185;SDS011;69904;52.122;5.422;2023-05-27T12:48:29;7.20;;;2.72;;
80185;SDS011;69904;52.122;5.422;2023-05-27T12:50:59;10.02;;;2.88;;
80185;SDS011;69904;52.122;5.422;2023-05-27T12:53:29;8.02;;;2.20;;
80185;SDS011;69904;52.122;5.422;2023-05-27T12:55:59;6.93;;;2.35;;
80185;SDS011;69904;52.122;5.422;2023-05-27T12:58:27;6.10;;;2.50;;
80185;SDS011;69904;52.122;5.422;2023-05-27T13:00:56;10.20;;;3.20;;
80185;SDS011;69904;52.122;5.422;2023-05-27T13:03:25;6.40;;;2.95;;
80185;SDS011;69904;52.122;5.422;2023-05-27T13:05:55;7.18;;;2.55;;
80185;SDS011;69904;52.122;5.422;2023-05-27T13:08:22;7.38;;;2.67;;
80185;SDS011;69904;52.122;5.422;2023-05-27T13:10:52;11.15;;;3.35;;
80185;SDS011;69904;52.122;5.422;2023-05-27T13:13:24;10.07;;;2.92;;
80185;SDS011;69904;52.122;5.422;2023-05-27T13:15:54;6.30;;;2.70;;
80185;SDS011;69904;52.122;5.422;2023-05-27T13:18:24;7.43;;;2.50;;
80185;SDS011;69904;52.122;5.422;2023-05-27T13:20:51;7.05;;;2.88;;
80185;SDS011;69904;52.122;5.422;2023-05-27T13:23:21;8.07;;;3.40;;
80185;SDS011;69904;52.122;5.422;2023-05-27T13:25:48;9.75;;;2.78;;
80185;SDS011;69904;52.122;5.422;2023-05-27T13:28:16;7.63;;;2.30;;
80185;SDS011;69904;52.122;5.422;2023-05-27T13:30:43;8.63;;;2.90;;
80185;SDS011;69904;52.122;5.422;2023-05-27T13:33:15;10.18;;;2.60;;
80185;SDS011;69904;52.122;5.422;2023-05-27T13:35:42;6.13;;;2.45;;
80185;SDS011;69904;52.122;5.422;2023-05-27T13:38:14;8.38;;;2.60;;
80185;SDS011;69904;52.122;5.422;2023-05-27T13:40:46;7.82;;;2.70;;
80185;SDS011;69904;52.122;5.422;2023-05-27T13:45:55;11.20;;;2.72;;
80185;SDS011;69904;52.122;5.422;2023-05-27T13:48:22;9.40;;;3.58;;
80185;SDS011;69904;52.122;5.422;2023-05-27T13:50:59;7.20;;;2.67;;
80185;SDS011;69904;52.122;5.422;2023-05-27T13:53:31;7.65;;;2.65;;
80185;SDS011;69904;52.122;5.422;2023-05-27T13:55:59;7.95;;;2.55;;
80185;SDS011;69904;52.122;5.422;2023-05-27T13:58:30;9.32;;;2.92;;
80185;SDS011;69904;52.122;5.422;2023-05-27T14:01:00;8.73;;;3.10;;
80185;SDS011;69904;52.122;5.422;2023-05-27T14:03:28;11.02;;;3.08;;
80185;SDS011;69904;52.122;5.422;2023-05-27T14:06:01;7.80;;;2.58;;
80185;SDS011;69904;52.122;5.422;2023-05-27T14:08:30;9.52;;;2.78;;
80185;SDS011;69904;52.122;5.422;2023-05-27T14:10:57;9.00;;;2.50;;
80185;SDS011;69904;52.122;5.422;2023-05-27T14:13:24;6.93;;;2.33;;
80185;SDS011;69904;52.122;5.422;2023-05-27T14:15:52;11.27;;;3.47;;
80185;SDS011;69904;52.122;5.422;2023-05-27T14:18:20;9.00;;;2.70;;
80185;SDS011;69904;52.122;5.422;2023-05-27T14:20:51;8.80;;;2.55;;
80185;SDS011;69904;52.122;5.422;2023-05-27T14:23:21;6.50;;;2.85;;
80185;SDS011;69904;52.122;5.422;2023-05-27T14:25:48;8.48;;;3.60;;
80185;SDS011;69904;52.122;5.422;2023-05-27T14:28:16;8.10;;;2.83;;
80185;SDS011;69904;52.122;5.422;2023-05-27T14:30:45;9.73;;;2.83;;
80185;SDS011;69904;52.122;5.422;2023-05-27T14:33:12;8.82;;;3.33;;
80185;SDS011;69904;52.122;5.422;2023-05-27T14:35:39;9.38;;;3.15;;
80185;SDS011;69904;52.122;5.422;2023-05-27T14:38:10;8.25;;;2.67;;
80185;SDS011;69904;52.122;5.422;2023-05-27T14:40:38;8.60;;;2.63;;
80185;SDS011;69904;52.122;5.422;2023-05-27T14:43:08;7.25;;;2.55;;
80185;SDS011;69904;52.122;5.422;2023-05-27T14:45:36;5.43;;;2.65;;
80185;SDS011;69904;52.122;5.422;2023-05-27T14:48:04;8.75;;;2.67;;
80185;SDS011;69904;52.122;5.422;2023-05-27T14:50:31;5.07;;;2.60;;
80185;SDS011;69904;52.122;5.422;2023-05-27T14:53:08;8.98;;;2.88;;
80185;SDS011;69904;52.122;5.422;2023-05-27T14:55:35;10.27;;;2.55;;
80185;SDS011;69904;52.122;5.422;2023-05-27T14:58:02;8.07;;;2.53;;
80185;SDS011;69904;52.122;5.422;2023-05-27T15:00:33;12.55;;;2.72;;
80185;SDS011;69904;52.122;5.422;2023-05-27T15:03:00;7.13;;;2.60;;
80185;SDS011;69904;52.122;5.422;2023-05-27T15:05:31;7.63;;;3.42;;
80185;SDS011;69904;52.122;5.422;2023-05-27T15:07:58;10.95;;;2.85;;
80185;SDS011;69904;52.122;5.422;2023-05-27T15:10:28;10.88;;;2.95;;
80185;SDS011;69904;52.122;5.422;2023-05-27T15:12:55;7.13;;;2.75;;
80185;SDS011;69904;52.122;5.422;2023-05-27T15:15:22;8.00;;;2.50;;
80185;SDS011;69904;52.122;5.422;2023-05-27T15:17:50;11.48;;;2.70;;
80185;SDS011;69904;52.122;5.422;2023-05-27T15:20:17;8.40;;;2.72;;
80185;SDS011;69904;52.122;5.422;2023-05-27T15:22:45;8.50;;;2.65;;
80185;SDS011;69904;52.122;5.422;2023-05-27T15:25:12;8.48;;;2.80;;
80185;SDS011;69904;52.122;5.422;2023-05-27T15:27:47;9.07;;;3.22;;
80185;SDS011;69904;52.122;5.422;2023-05-27T15:30:15;10.93;;;3.47;;
80185;SDS011;69904;52.122;5.422;2023-05-27T15:32:44;7.97;;;3.00;;
80185;SDS011;69904;52.122;5.422;2023-05-27T15:35:18;10.55;;;2.80;;
80185;SDS011;69904;52.122;5.422;2023-05-27T15:37:48;6.70;;;2.33;;
80185;SDS011;69904;52.122;5.422;2023-05-27T15:40:15;8.45;;;2.88;;